This is the latest recevied weather packets stored in our database for station/object AF9W-5. If no packets are shown the sender has not sent any weather packets the latest 10 day(s).
| Time | Temp. | Humidity | Pressure | Rain* | Wind** | Luminosity | Snow |
|---|---|---|---|---|---|---|---|
| 1777563362 | 22.22° C | 20% | 1011.7 hPa | 0 mm | - | 226 W/m² | - |
| 1777563058 | 22.78° C | 21% | 1011.7 hPa | 0 mm | - | 204 W/m² | - |
| 1777562754 | 22.22° C | 22% | 1011.7 hPa | 0 mm | - | 387 W/m² | - |
| 1777557291 | 16.11° C | 33% | 1011.8 hPa | 0 mm | - | 56 W/m² | - |
| 1777556988 | 16.11° C | 33% | 1011.3 hPa | 0 mm | - | 56 W/m² | - |
| 1777555779 | 15° C | 35% | 1011.5 hPa | 0 mm | - | 36 W/m² | - |
| 1777555476 | 15° C | 35% | 1011.4 hPa | 0 mm | - | 36 W/m² | - |
| 1777555172 | 15° C | 34% | 1011.7 hPa | 0 mm | - | 30 W/m² | - |
| 1777554870 | 15° C | 33% | 1011.2 hPa | 0 mm | - | 27 W/m² | - |
| 1777554566 | 15.56° C | 31% | 1011.5 hPa | 0 mm | - | 19 W/m² | - |
| 1777554263 | 15° C | 32% | 1011.2 hPa | 0 mm | - | 15 W/m² | - |
| 1777553960 | 15° C | 33% | 1011.5 hPa | 0 mm | - | 11 W/m² | - |
| 1777553656 | 15.56° C | 31% | 1011.2 hPa | 0 mm | - | 7 W/m² | - |
| 1777553353 | 15.56° C | 31% | 1011.2 hPa | 0 mm | - | 5 W/m² | - |
| 1777553049 | 15.56° C | 31% | 1011.3 hPa | 0 mm | - | 3 W/m² | - |
| 1777552744 | 15° C | 34% | 1011.4 hPa | 0 mm | - | 1 W/m² | - |
| 1777552441 | 15° C | 36% | 1011.5 hPa | 0 mm | - | 1 W/m² | - |
| 1777552137 | 15° C | 34% | 1011.5 hPa | 0 mm | - | 0 W/m² | - |
| 1777551835 | 15.56° C | 34% | 1011.3 hPa | 0 mm | - | 0 W/m² | - |
| 1777551532 | 15.56° C | 33% | 1011.1 hPa | 0 mm | - | 0 W/m² | - |
| 1777551228 | 15.56° C | 33% | 1011.1 hPa | 0 mm | - | 0 W/m² | - |
| 1777550925 | 15.56° C | 33% | 1011.2 hPa | 0 mm | - | 0 W/m² | - |
| 1777550622 | 15.56° C | 32% | 1011.3 hPa | 0 mm | - | 0 W/m² | - |
| 1777550319 | 16.11° C | 31% | 1011.3 hPa | 0 mm | - | 0 W/m² | - |
| 1777550015 | 16.11° C | 31% | 1011.4 hPa | 0 mm | - | 0 W/m² | - |
* Rain latest hour (hover to see other rain measurements)
** Current wind speed in m/s (hover to see current wind gust speed)